Edgemont, Pennsylvania
Current Conditions -  °F | °C
As of 2:54 AM on Friday 28 Nov 2014 (Local Time) from KPHL Reporting Station
Broken Clouds Broken Clouds  
Wind Chill: 29°   Ceiling: 7500
Heat Index: 34°   Visibility: 10mi
Dew Point: 27°   Wind: 6mph
Humidity: 75%   Direction: 290°WNW
Pressure: 30.14"   Gusts: NA
Location:  39.97°N, 75.45°W
Report Text: KPHL 280754Z 29005KT 10SM FEW025 SCT055 BKN075 01/M03 A3014 RMK AO2 SLP206 T00111028 $
Loading
Personal Weather Stations






























Interactive Weather Map New forecast layout! Learn more

10-Day Weather Forecast

Advertisements
Track Severe Weather on mobile